Time,TemperatureF,DewpointF,PressureIn,WindDirection,WindDirectionDegrees,WindSpeedMPH,WindSpeedGustMPH,Humidity,HourlyPrecipIn,Conditions,Clouds,dailyrainin,SoftwareType,DateUTC
2013-04-05 00:00:00,67.7,63.7,29.77,North,0,1.0,7.0,87,0.00,,,-99.99,WeatherLink 5.7,2013-04-05 04:00:00,
2013-04-05 00:15:00,67.5,63.5,29.81,North,-999,0.0,0.0,87,0.00,,,-99.99,WeatherLink 5.7,2013-04-05 04:15:00,
2013-04-05 00:30:00,67.4,63.7,29.82,North,-999,0.0,0.0,88,0.00,,,-99.99,WeatherLink 5.7,2013-04-05 04:30:00,
2013-04-05 00:45:00,67.4,63.7,29.82,North,-999,0.0,0.0,88,0.00,,,-99.99,WeatherLink 5.7,2013-04-05 04:45:00,
2013-04-05 01:00:00,67.4,63.7,29.81,North,0,0.0,3.0,88,0.00,,,-99.99,WeatherLink 5.7,2013-04-05 05:00:00,
2013-04-05 01:15:00,67.3,63.6,29.80,North,0,0.0,4.0,88,0.00,,,-99.99,WeatherLink 5.7,2013-04-05 05:15:00,
2013-04-05 01:30:00,67.1,63.4,29.80,North,-999,0.0,0.0,88,0.00,,,-99.99,WeatherLink 5.7,2013-04-05 05:30:00,
2013-04-05 01:45:00,66.9,63.2,29.79,North,-999,0.0,0.0,88,0.00,,,-99.99,WeatherLink 5.7,2013-04-05 05:45:00,
2013-04-05 02:00:00,66.6,62.9,29.78,North,-999,0.0,0.0,88,0.00,,,-99.99,WeatherLink 5.7,2013-04-05 06:00:00,
2013-04-05 02:15:00,66.4,62.7,29.78,North,-999,0.0,0.0,88,0.00,,,-99.99,WeatherLink 5.7,2013-04-05 06:15:00,
2013-04-05 02:30:00,66.1,62.4,29.78,North,-999,0.0,0.0,88,0.00,,,-99.99,WeatherLink 5.7,2013-04-05 06:30:00,
2013-04-05 02:45:00,66.0,62.3,29.78,North,-999,0.0,0.0,88,0.00,,,-99.99,WeatherLink 5.7,2013-04-05 06:45:00,
2013-04-05 03:00:00,65.8,62.5,29.77,North,-999,0.0,0.0,89,0.00,,,-99.99,WeatherLink 5.7,2013-04-05 07:00:00,
2013-04-05 03:15:00,65.8,62.5,29.77,North,-999,0.0,0.0,89,0.00,,,-99.99,WeatherLink 5.7,2013-04-05 07:15:00,
2013-04-05 03:30:00,65.9,62.6,29.77,North,-999,0.0,0.0,89,0.00,,,-99.99,WeatherLink 5.7,2013-04-05 07:30:00,
2013-04-05 03:45:00,66.0,62.7,29.77,North,-999,0.0,0.0,89,0.00,,,-99.99,WeatherLink 5.7,2013-04-05 07:45:00,
2013-04-05 04:00:00,65.9,62.6,29.76,North,-999,0.0,0.0,89,0.00,,,-99.99,WeatherLink 5.7,2013-04-05 08:00:00,
2013-04-05 04:15:00,65.8,62.5,29.75,North,-999,0.0,0.0,89,0.00,,,-99.99,WeatherLink 5.7,2013-04-05 08:15:00,
2013-04-05 04:30:00,65.6,62.3,29.74,North,-999,0.0,0.0,89,0.01,,,-99.99,WeatherLink 5.7,2013-04-05 08:30:00,
2013-04-05 04:45:00,65.5,62.2,29.74,North,-999,0.0,0.0,89,0.01,,,-99.99,WeatherLink 5.7,2013-04-05 08:45:00,
2013-04-05 05:00:00,65.5,62.5,29.72,North,-999,0.0,0.0,90,0.01,,,-99.99,WeatherLink 5.7,2013-04-05 09:00:00,
2013-04-05 05:15:00,65.4,62.1,29.72,North,-999,0.0,0.0,89,0.01,,,-99.99,WeatherLink 5.7,2013-04-05 09:15:00,
2013-04-05 05:30:00,65.2,61.9,29.73,North,-999,0.0,0.0,89,0.00,,,-99.99,WeatherLink 5.7,2013-04-05 09:30:00,
2013-04-05 05:45:00,65.0,62.0,29.73,North,-999,0.0,0.0,90,0.00,,,-99.99,WeatherLink 5.7,2013-04-05 09:45:00,
2013-04-05 06:00:00,64.8,61.5,29.74,North,-999,0.0,0.0,89,0.00,,,-99.99,WeatherLink 5.7,2013-04-05 10:00:00,
2013-04-05 06:15:00,64.6,61.6,29.75,North,-999,0.0,0.0,90,0.00,,,-99.99,WeatherLink 5.7,2013-04-05 10:15:00,
2013-04-05 06:30:00,64.3,61.3,29.75,North,-999,0.0,0.0,90,0.00,,,-99.99,WeatherLink 5.7,2013-04-05 10:30:00,
2013-04-05 06:45:00,64.2,61.2,29.77,North,-999,0.0,0.0,90,0.00,,,-99.99,WeatherLink 5.7,2013-04-05 10:45:00,
2013-04-05 07:00:00,64.2,61.2,29.76,North,-999,0.0,0.0,90,0.00,,,-99.99,WeatherLink 5.7,2013-04-05 11:00:00,
2013-04-05 07:15:00,64.3,61.3,29.76,North,-999,0.0,0.0,90,0.00,,,-99.99,WeatherLink 5.7,2013-04-05 11:15:00,
2013-04-05 07:30:00,64.5,61.8,29.77,North,-999,0.0,0.0,91,0.00,,,-99.99,WeatherLink 5.7,2013-04-05 11:30:00,
2013-04-05 07:45:00,64.9,62.2,29.79,North,-999,0.0,0.0,91,0.00,,,-99.99,WeatherLink 5.7,2013-04-05 11:45:00,
2013-04-05 08:00:00,65.5,63.1,29.79,North,0,0.0,1.0,92,0.15,,,-99.99,WeatherLink 5.7,2013-04-05 12:00:00,
2013-04-05 08:15:00,65.9,63.5,29.79,North,-999,0.0,0.0,92,0.17,,,-99.99,WeatherLink 5.7,2013-04-05 12:15:00,
2013-04-05 08:30:00,66.2,63.8,29.79,North,-999,0.0,0.0,92,0.20,,,-99.99,WeatherLink 5.7,2013-04-05 12:30:00,
2013-04-05 08:45:00,66.5,64.1,29.79,North,0,0.0,1.0,92,0.20,,,-99.99,WeatherLink 5.7,2013-04-05 12:45:00,
2013-04-05 09:00:00,67.2,64.8,29.79,North,-999,0.0,0.0,92,0.05,,,-99.99,WeatherLink 5.7,2013-04-05 13:00:00,
2013-04-05 09:15:00,67.6,65.2,29.80,North,0,0.0,1.0,92,0.04,,,-99.99,WeatherLink 5.7,2013-04-05 13:15:00,
2013-04-05 09:30:00,67.3,64.3,29.81,North,0,2.0,12.0,90,0.02,,,-99.99,WeatherLink 5.7,2013-04-05 13:30:00,
2013-04-05 09:45:00,65.9,62.9,29.81,North,0,2.0,10.0,90,0.02,,,-99.99,WeatherLink 5.7,2013-04-05 13:45:00,
2013-04-05 10:00:00,65.3,62.6,29.81,North,0,3.0,11.0,91,0.02,,,-99.99,WeatherLink 5.7,2013-04-05 14:00:00,
2013-04-05 10:15:00,65.3,62.3,29.81,North,0,2.0,9.0,90,0.02,,,-99.99,WeatherLink 5.7,2013-04-05 14:15:00,
2013-04-05 10:30:00,65.3,61.7,29.82,North,0,5.0,15.0,88,0.01,,,-99.99,WeatherLink 5.7,2013-04-05 14:30:00,
2013-04-05 10:45:00,65.2,61.2,29.82,North,0,3.0,12.0,87,0.01,,,-99.99,WeatherLink 5.7,2013-04-05 14:45:00,
2013-04-05 11:00:00,65.3,61.3,29.83,North,0,3.0,14.0,87,0.01,,,-99.99,WeatherLink 5.7,2013-04-05 15:00:00,
2013-04-05 11:15:00,65.4,61.4,29.83,North,0,4.0,14.0,87,0.00,,,-99.99,WeatherLink 5.7,2013-04-05 15:15:00,
2013-04-05 11:30:00,65.9,61.6,29.83,North,0,5.0,14.0,86,0.00,,,-99.99,WeatherLink 5.7,2013-04-05 15:30:00,
2013-04-05 11:45:00,66.2,61.9,29.83,North,0,3.0,14.0,86,0.00,,,-99.99,WeatherLink 5.7,2013-04-05 15:45:00,
2013-04-05 12:00:00,66.4,62.1,29.83,North,0,3.0,12.0,86,0.00,,,-99.99,WeatherLink 5.7,2013-04-05 16:00:00,
2013-04-05 12:15:00,66.7,62.0,29.83,North,0,2.0,11.0,85,0.00,,,-99.99,WeatherLink 5.7,2013-04-05 16:15:00,
2013-04-05 12:30:00,66.9,61.6,29.82,North,0,5.0,15.0,83,0.00,,,-99.99,WeatherLink 5.7,2013-04-05 16:30:00,
2013-04-05 12:45:00,67.4,61.4,29.82,North,0,5.0,17.0,81,0.00,,,-99.99,WeatherLink 5.7,2013-04-05 16:45:00,
2013-04-05 13:00:00,68.2,61.4,29.82,North,0,4.0,17.0,79,0.00,,,-99.99,WeatherLink 5.7,2013-04-05 17:00:00,
2013-04-05 13:15:00,68.6,61.8,29.81,North,0,4.0,20.0,79,0.00,,,-99.99,WeatherLink 5.7,2013-04-05 17:15:00,
2013-04-05 13:30:00,69.0,61.5,29.81,North,0,2.0,11.0,77,0.00,,,-99.99,WeatherLink 5.7,2013-04-05 17:30:00,
2013-04-05 13:45:00,69.4,61.5,29.80,North,0,3.0,13.0,76,0.00,,,-99.99,WeatherLink 5.7,2013-04-05 17:45:00,
2013-04-05 14:00:00,69.7,61.4,29.80,North,0,3.0,17.0,75,0.00,,,-99.99,WeatherLink 5.7,2013-04-05 18:00:00,
2013-04-05 14:15:00,70.2,61.1,29.80,North,0,3.0,11.0,73,0.00,,,-99.99,WeatherLink 5.7,2013-04-05 18:15:00,
2013-04-05 14:30:00,70.0,60.6,29.80,North,0,3.0,14.0,72,0.00,,,-99.99,WeatherLink 5.7,2013-04-05 18:30:00,
2013-04-05 14:45:00,69.7,60.3,29.80,North,0,3.0,15.0,72,0.00,,,-99.99,WeatherLink 5.7,2013-04-05 18:45:00,
2013-04-05 15:00:00,69.3,60.3,29.80,North,0,2.0,14.0,73,0.00,,,-99.99,WeatherLink 5.7,2013-04-05 19:00:00,
2013-04-05 15:15:00,69.4,60.0,29.79,North,0,3.0,14.0,72,0.00,,,-99.99,WeatherLink 5.7,2013-04-05 19:15:00,
2013-04-05 15:30:00,69.5,59.7,29.79,North,0,3.0,13.0,71,0.00,,,-99.99,WeatherLink 5.7,2013-04-05 19:30:00,
2013-04-05 15:45:00,68.8,59.4,29.79,North,0,4.0,15.0,72,0.00,,,-99.99,WeatherLink 5.7,2013-04-05 19:45:00,
2013-04-05 16:00:00,68.4,58.6,29.78,North,0,2.0,13.0,71,0.00,,,-99.99,WeatherLink 5.7,2013-04-05 20:00:00,
2013-04-05 16:15:00,68.6,59.2,29.78,North,0,2.0,13.0,72,0.00,,,-99.99,WeatherLink 5.7,2013-04-05 20:15:00,
2013-04-05 16:30:00,68.3,58.9,29.78,North,0,1.0,9.0,72,0.00,,,-99.99,WeatherLink 5.7,2013-04-05 20:30:00,
2013-04-05 16:45:00,68.3,58.1,29.77,North,0,2.0,14.0,70,0.00,,,-99.99,WeatherLink 5.7,2013-04-05 20:45:00,
2013-04-05 17:00:00,68.4,59.4,29.78,North,0,5.0,18.0,73,0.00,,,-99.99,WeatherLink 5.7,2013-04-05 21:00:00,
2013-04-05 17:15:00,67.5,58.2,29.78,North,0,6.0,17.0,72,0.00,,,-99.99,WeatherLink 5.7,2013-04-05 21:15:00,
2013-04-05 17:30:00,67.0,57.7,29.78,North,0,4.0,16.0,72,0.00,,,-99.99,WeatherLink 5.7,2013-04-05 21:30:00,
2013-04-05 17:45:00,66.7,57.4,29.79,North,0,5.0,17.0,72,0.00,,,-99.99,WeatherLink 5.7,2013-04-05 21:45:00,
2013-04-05 18:00:00,65.9,57.0,29.79,North,0,3.0,15.0,73,0.00,,,-99.99,WeatherLink 5.7,2013-04-05 22:00:00,
2013-04-05 18:15:00,65.4,56.5,29.79,North,0,4.0,16.0,73,0.00,,,-99.99,WeatherLink 5.7,2013-04-05 22:15:00,
2013-04-05 18:30:00,64.7,55.8,29.80,North,0,6.0,20.0,73,0.00,,,-99.99,WeatherLink 5.7,2013-04-05 22:30:00,
2013-04-05 18:45:00,63.9,55.4,29.80,North,0,4.0,16.0,74,0.00,,,-99.99,WeatherLink 5.7,2013-04-05 22:45:00,
2013-04-05 19:00:00,63.3,55.6,29.81,North,0,4.0,20.0,76,0.00,,,-99.99,WeatherLink 5.7,2013-04-05 23:00:00,
2013-04-05 19:15:00,63.0,55.7,29.82,North,0,3.0,14.0,77,0.00,,,-99.99,WeatherLink 5.7,2013-04-05 23:15:00,
2013-04-05 19:30:00,62.7,55.4,29.82,North,0,4.0,16.0,77,0.00,,,-99.99,WeatherLink 5.7,2013-04-05 23:30:00,
2013-04-05 19:45:00,62.6,55.6,29.82,North,0,4.0,17.0,78,0.00,,,-99.99,WeatherLink 5.7,2013-04-05 23:45:00,
2013-04-05 20:00:00,62.6,56.0,29.82,North,0,4.0,13.0,79,0.00,,,-99.99,WeatherLink 5.7,2013-04-06 00:00:00,
2013-04-05 20:15:00,62.5,55.9,29.83,North,0,3.0,12.0,79,0.00,,,-99.99,WeatherLink 5.7,2013-04-06 00:15:00,
2013-04-05 20:30:00,62.5,55.9,29.84,North,0,4.0,14.0,79,0.00,,,-99.99,WeatherLink 5.7,2013-04-06 00:30:00,
2013-04-05 20:45:00,62.6,56.3,29.85,North,0,3.0,15.0,80,0.00,,,-99.99,WeatherLink 5.7,2013-04-06 00:45:00,
2013-04-05 21:00:00,62.7,56.4,29.85,North,0,2.0,12.0,80,0.00,,,-99.99,WeatherLink 5.7,2013-04-06 01:00:00,
2013-04-05 21:15:00,62.9,56.6,29.86,North,0,4.0,14.0,80,0.00,,,-99.99,WeatherLink 5.7,2013-04-06 01:15:00,
2013-04-05 21:30:00,62.9,56.3,29.87,North,0,3.0,15.0,79,0.00,,,-99.99,WeatherLink 5.7,2013-04-06 01:30:00,
2013-04-05 21:45:00,62.9,55.9,29.87,North,0,4.0,15.0,78,0.00,,,-99.99,WeatherLink 5.7,2013-04-06 01:45:00,
2013-04-05 22:00:00,62.8,55.8,29.88,North,0,3.0,12.0,78,0.00,,,-99.99,WeatherLink 5.7,2013-04-06 02:00:00,
2013-04-05 22:15:00,62.7,55.7,29.88,North,0,3.0,14.0,78,0.00,,,-99.99,WeatherLink 5.7,2013-04-06 02:15:00,
2013-04-05 22:30:00,62.7,55.7,29.89,North,0,3.0,12.0,78,0.00,,,-99.99,WeatherLink 5.7,2013-04-06 02:30:00,
2013-04-05 22:45:00,62.6,55.6,29.89,North,0,3.0,14.0,78,0.00,,,-99.99,WeatherLink 5.7,2013-04-06 02:45:00,
2013-04-05 23:00:00,62.4,55.4,29.90,North,0,1.0,9.0,78,0.00,,,-99.99,WeatherLink 5.7,2013-04-06 03:00:00,
2013-04-05 23:15:00,62.2,55.3,29.91,North,0,2.0,12.0,78,0.00,,,-99.99,WeatherLink 5.7,2013-04-06 03:15:00,
2013-04-05 23:30:00,61.7,54.8,29.91,North,0,3.0,14.0,78,0.00,,,-99.99,WeatherLink 5.7,2013-04-06 03:30:00,
2013-04-05 23:45:00,61.4,54.5,29.91,North,0,5.0,15.0,78,0.00,,,-99.99,WeatherLink 5.7,2013-04-06 03:45:00,